Time;durP1;ratioP1;P1;durP2;ratioP2;P2;SDS_P1;SDS_P2;PMS_P1;PMS_P2;Temp;Humidity;BMP_temperature;BMP_pressure;BME280_temperature;BME280_humidity;BME280_pressure;Samples;Min_cycle;Max_cycle;Signal;HPM_P1;HPM_P2
2023/12/11 00:02:33;;;;;;;1.20;0.73;;;11.30;41.10;;;;;;10428246;28;20229;-75
2023/12/11 00:07:37;;;;;;;1.73;0.93;;;11.30;41.50;;;;;;10425967;28;20232;-75
2023/12/11 00:12:40;;;;;;;0.60;0.60;;;11.30;42.00;;;;;;10422278;28;20332;-75
2023/12/11 00:17:45;;;;;;;1.13;0.80;;;11.20;42.20;;;;;;10426744;28;20260;-75
2023/12/11 00:22:48;;;;;;;1.40;0.80;;;11.20;42.70;;;;;;10434972;28;20287;-75
2023/12/11 00:27:52;;;;;;;2.00;0.80;;;11.20;42.80;;;;;;10430939;28;20747;-76
2023/12/11 00:32:57;;;;;;;1.43;0.80;;;11.10;42.90;;;;;;10432028;28;20233;-75
2023/12/11 00:38:00;;;;;;;0.80;0.73;;;11.10;43.20;;;;;;10430185;28;20229;-75
2023/12/11 00:43:03;;;;;;;0.80;0.70;;;11.10;43.00;;;;;;10428737;28;20670;-76
2023/12/11 00:48:08;;;;;;;1.87;0.90;;;11.20;43.00;;;;;;10431567;28;20233;-76
2023/12/11 00:53:12;;;;;;;1.00;0.70;;;11.20;43.30;;;;;;10427752;28;20241;-75
2023/12/11 00:58:15;;;;;;;1.30;1.00;;;11.20;43.10;;;;;;10434782;28;20236;-75
2023/12/11 01:03:20;;;;;;;2.60;0.90;;;11.20;43.20;;;;;;10432762;28;20325;-75
2023/12/11 01:08:27;;;;;;;2.27;0.90;;;11.10;43.40;;;;;;10428371;28;20326;-75
2023/12/11 01:13:30;;;;;;;1.57;0.80;;;11.10;43.40;;;;;;10423244;28;20318;-75
2023/12/11 01:18:35;;;;;;;1.87;0.97;;;11.10;43.60;;;;;;10420582;28;20660;-75
2023/12/11 01:23:38;;;;;;;0.70;0.70;;;11.10;43.90;;;;;;10423959;28;20225;-75
2023/12/11 01:28:42;;;;;;;1.27;0.90;;;11.10;44.10;;;;;;10427630;28;20308;-75
2023/12/11 01:33:46;;;;;;;1.27;0.90;;;11.10;44.20;;;;;;10425144;28;20233;-75
2023/12/11 01:38:50;;;;;;;2.40;1.20;;;11.00;44.50;;;;;;10427217;28;20221;-75
2023/12/11 01:43:53;;;;;;;1.53;0.90;;;11.00;44.50;;;;;;10431998;28;20264;-75
2023/12/11 01:48:59;;;;;;;1.87;1.07;;;11.00;44.70;;;;;;10424817;28;20228;-75
2023/12/11 01:54:03;;;;;;;1.90;0.83;;;11.00;44.80;;;;;;10427549;28;20229;-75
2023/12/11 01:59:07;;;;;;;2.17;1.07;;;11.00;45.00;;;;;;10423182;28;20633;-75
2023/12/11 02:04:12;;;;;;;2.50;0.93;;;11.00;44.90;;;;;;10429039;28;20233;-75
2023/12/11 02:09:16;;;;;;;1.97;0.83;;;11.10;45.20;;;;;;10429189;28;20884;-76
2023/12/11 02:14:19;;;;;;;1.60;0.90;;;11.10;44.80;;;;;;10418763;28;20244;-76
2023/12/11 02:19:24;;;;;;;1.07;0.87;;;11.20;44.70;;;;;;10426604;28;20243;-75
2023/12/11 02:24:33;;;;;;;1.63;1.10;;;11.30;44.90;;;;;;10423539;28;20283;-76
2023/12/11 02:29:37;;;;;;;1.47;0.93;;;11.40;45.00;;;;;;10419034;28;20233;-75
2023/12/11 02:34:41;;;;;;;1.40;0.90;;;11.40;44.60;;;;;;10420128;28;20796;-75
2023/12/11 02:39:46;;;;;;;1.57;1.00;;;11.40;44.40;;;;;;10425294;28;20329;-75
2023/12/11 02:44:51;;;;;;;1.87;1.13;;;11.50;44.60;;;;;;10429864;28;20240;-75
2023/12/11 02:49:54;;;;;;;0.97;0.80;;;11.50;44.70;;;;;;10431747;28;20715;-75
2023/12/11 02:54:57;;;;;;;1.27;1.00;;;11.50;44.50;;;;;;10423649;28;20239;-75
2023/12/11 03:00:02;;;;;;;1.77;1.00;;;11.50;45.50;;;;;;10424122;28;20240;-76
2023/12/11 03:05:06;;;;;;;3.57;1.03;;;11.50;45.00;;;;;;10430874;28;20229;-75
2023/12/11 03:10:09;;;;;;;2.23;1.10;;;11.50;45.00;;;;;;10434639;28;20229;-75
2023/12/11 03:15:14;;;;;;;1.90;1.20;;;11.50;45.30;;;;;;10431887;28;20244;-75
2023/12/11 03:20:17;;;;;;;1.30;0.90;;;11.50;45.80;;;;;;10430907;28;20241;-75
2023/12/11 03:25:21;;;;;;;1.57;0.80;;;11.50;45.80;;;;;;10433570;28;20297;-75
2023/12/11 03:30:26;;;;;;;0.70;0.70;;;11.40;45.60;;;;;;10433036;28;20767;-75
2023/12/11 03:35:29;;;;;;;0.87;0.80;;;11.40;45.90;;;;;;10426815;28;20664;-75
2023/12/11 03:40:33;;;;;;;3.40;2.67;;;11.40;45.70;;;;;;10428100;28;20251;-76
2023/12/11 03:45:37;;;;;;;4.70;4.20;;;11.50;45.70;;;;;;10428392;28;20319;-76
2023/12/11 03:50:40;;;;;;;2.50;2.30;;;11.50;45.90;;;;;;10433834;28;20232;-76
2023/12/11 03:55:44;;;;;;;1.57;1.10;;;11.60;45.60;;;;;;10433944;28;20237;-76
2023/12/11 04:00:48;;;;;;;2.10;1.30;;;11.60;45.60;;;;;;10429515;28;20235;-75
2023/12/11 04:05:52;;;;;;;1.17;1.07;;;11.50;45.80;;;;;;10433913;28;20260;-76
2023/12/11 04:10:55;;;;;;;0.80;0.80;;;11.50;45.80;;;;;;10432691;28;20235;-75
2023/12/11 04:16:03;;;;;;;1.30;0.90;;;11.50;45.90;;;;;;10429604;28;20220;-76
2023/12/11 04:21:07;;;;;;;2.50;0.80;;;11.50;46.10;;;;;;10431524;28;20221;-75
2023/12/11 04:26:10;;;;;;;0.90;0.80;;;11.50;46.00;;;;;;10441461;28;20243;-75
2023/12/11 04:31:15;;;;;;;1.40;0.87;;;11.50;45.90;;;;;;10444755;28;20225;-75
2023/12/11 04:36:18;;;;;;;0.60;0.60;;;11.40;46.30;;;;;;10449977;28;20229;-75
2023/12/11 04:41:22;;;;;;;1.90;0.93;;;11.50;46.20;;;;;;10438157;28;20315;-75
2023/12/11 04:46:26;;;;;;;0.60;0.60;;;11.40;46.20;;;;;;10440001;28;20237;-76
2023/12/11 04:51:30;;;;;;;0.90;0.90;;;11.40;46.50;;;;;;10445820;28;20334;-75
2023/12/11 04:56:34;;;;;;;1.93;0.97;;;11.40;46.40;;;;;;10439462;28;20287;-76
2023/12/11 05:01:38;;;;;;;0.90;0.70;;;11.40;46.50;;;;;;10438667;28;20229;-76
2023/12/11 05:06:43;;;;;;;1.40;1.30;;;11.40;47.00;;;;;;10443133;28;20259;-76
2023/12/11 05:11:46;;;;;;;2.30;1.63;;;11.40;46.60;;;;;;10444728;28;20232;-75
2023/12/11 05:16:51;;;;;;;3.70;2.70;;;11.50;47.00;;;;;;10446358;28;20316;-76
2023/12/11 05:21:58;;;;;;;12.07;8.40;;;11.50;47.20;;;;;;10442856;28;20225;-75
2023/12/11 05:27:01;;;;;;;3.03;2.33;;;11.50;46.90;;;;;;10438203;28;20225;-76
2023/12/11 05:32:07;;;;;;;1.83;1.60;;;11.50;47.00;;;;;;10430496;28;20232;-75
2023/12/11 05:37:10;;;;;;;2.17;1.27;;;11.50;47.20;;;;;;10431254;28;20312;-75
2023/12/11 05:42:14;;;;;;;1.67;1.20;;;11.60;46.80;;;;;;10432822;28;20292;-78
2023/12/11 05:47:19;;;;;;;1.60;1.50;;;11.50;46.50;;;;;;10429947;28;20236;-77
2023/12/11 05:52:22;;;;;;;1.30;1.20;;;11.50;47.10;;;;;;10423493;28;20233;-80
2023/12/11 05:57:25;;;;;;;1.67;1.20;;;11.40;46.80;;;;;;10444606;28;20239;-80
2023/12/11 06:02:30;;;;;;;3.50;1.60;;;11.40;47.10;;;;;;10442556;28;20233;-79
2023/12/11 06:07:33;;;;;;;1.87;1.50;;;11.40;47.30;;;;;;10434682;28;20234;-78
2023/12/11 06:12:37;;;;;;;1.90;1.10;;;11.30;47.00;;;;;;10432356;28;20797;-78
2023/12/11 06:17:42;;;;;;;1.37;1.17;;;11.30;47.00;;;;;;10428880;28;20238;-78
2023/12/11 06:22:47;;;;;;;1.97;1.50;;;11.30;47.50;;;;;;10438674;28;20247;-82
2023/12/11 06:27:50;;;;;;;2.13;1.50;;;11.30;47.50;;;;;;10435227;28;20323;-81
2023/12/11 06:32:56;;;;;;;1.30;1.20;;;11.30;47.00;;;;;;10442178;28;20229;-81
2023/12/11 06:38:00;;;;;;;2.10;1.80;;;11.30;47.30;;;;;;10440439;28;20265;-81
2023/12/11 06:43:03;;;;;;;4.17;3.40;;;11.30;47.00;;;;;;10440689;28;20692;-81
2023/12/11 06:48:08;;;;;;;3.73;3.00;;;11.30;47.00;;;;;;10446037;28;20240;-80
2023/12/11 06:53:11;;;;;;;3.60;3.30;;;11.30;47.00;;;;;;10444468;28;20278;-80
2023/12/11 06:58:15;;;;;;;3.83;2.83;;;11.40;46.80;;;;;;10444917;28;20264;-81
2023/12/11 07:03:19;;;;;;;6.33;3.97;;;11.40;46.60;;;;;;10446512;28;20273;-80
2023/12/11 07:08:23;;;;;;;6.13;4.27;;;11.40;46.70;;;;;;10439443;28;20228;-80
2023/12/11 07:13:26;;;;;;;6.80;4.90;;;11.40;46.50;;;;;;10437530;28;20710;-80
2023/12/11 07:18:31;;;;;;;8.10;5.70;;;11.40;46.30;;;;;;10435859;28;20237;-81
2023/12/11 07:23:34;;;;;;;2.97;2.67;;;11.40;46.30;;;;;;10435440;28;20233;-78
2023/12/11 07:28:38;;;;;;;3.37;2.20;;;11.40;46.00;;;;;;10442345;28;20309;-80
2023/12/11 07:33:43;;;;;;;2.50;2.30;;;11.30;46.00;;;;;;10445264;28;20268;-79
2023/12/11 07:38:47;;;;;;;2.77;2.03;;;11.30;46.20;;;;;;10429825;28;20233;-78
2023/12/11 07:43:50;;;;;;;2.20;2.00;;;11.30;46.10;;;;;;10437869;28;20719;-78
2023/12/11 07:48:55;;;;;;;1.77;1.67;;;11.30;45.90;;;;;;10445228;28;20789;-78
2023/12/11 07:53:59;;;;;;;1.57;1.47;;;11.30;45.50;;;;;;10443325;28;20221;-77
2023/12/11 07:59:02;;;;;;;1.53;1.43;;;11.20;45.10;;;;;;10445368;28;20259;-78
2023/12/11 08:04:07;;;;;;;1.83;1.70;;;11.30;45.10;;;;;;10446058;28;20237;-78
2023/12/11 08:09:11;;;;;;;2.07;1.97;;;11.20;45.00;;;;;;10446178;28;20615;-78
2023/12/11 08:14:14;;;;;;;1.80;1.70;;;11.20;45.10;;;;;;10446585;28;20240;-78
2023/12/11 08:19:19;;;;;;;4.40;2.00;;;11.20;45.00;;;;;;10437105;28;20242;-79
2023/12/11 08:24:22;;;;;;;2.10;2.00;;;11.20;45.00;;;;;;10443613;28;20237;-78
2023/12/11 08:29:26;;;;;;;1.70;1.60;;;11.20;44.90;;;;;;10451885;28;20307;-78
2023/12/11 08:34:30;;;;;;;2.07;1.87;;;11.20;44.90;;;;;;10447120;28;20297;-78
2023/12/11 08:39:34;;;;;;;1.70;1.60;;;11.10;45.00;;;;;;10451418;28;20666;-78
2023/12/11 08:44:37;;;;;;;1.83;1.73;;;11.10;44.90;;;;;;10447043;28;20237;-78
2023/12/11 08:49:42;;;;;;;1.93;1.80;;;11.10;44.90;;;;;;10446711;28;20599;-78
2023/12/11 08:54:47;;;;;;;1.90;1.80;;;11.10;45.10;;;;;;10446815;28;20228;-78
2023/12/11 08:59:50;;;;;;;2.30;2.10;;;11.10;45.10;;;;;;10450233;28;20224;-79
2023/12/11 09:04:56;;;;;;;8.70;6.73;;;11.10;45.10;;;;;;10443904;28;20303;-78
2023/12/11 09:09:59;;;;;;;6.83;6.13;;;11.10;45.40;;;;;;10450281;28;20240;-79
2023/12/11 09:15:03;;;;;;;5.47;4.70;;;11.10;45.50;;;;;;10445239;28;20662;-77
2023/12/11 09:20:09;;;;;;;3.97;3.57;;;11.10;46.00;;;;;;10444813;28;20233;-78
2023/12/11 09:25:13;;;;;;;2.30;2.10;;;11.10;47.10;;;;;;10444472;28;20711;-78
2023/12/11 09:30:18;;;;;;;1.60;1.50;;;11.10;47.40;;;;;;10449892;28;20252;-79
2023/12/11 09:35:23;;;;;;;1.10;1.10;;;11.20;48.30;;;;;;10455925;28;20245;-80
2023/12/11 09:40:26;;;;;;;1.00;1.00;;;11.30;49.20;;;;;;10451394;28;20913;-78
2023/12/11 09:45:31;;;;;;;1.33;0.90;;;11.50;48.90;;;;;;10458597;28;20243;-80
2023/12/11 09:50:38;;;;;;;1.00;1.00;;;11.60;49.70;;;;;;10455280;28;20232;-80
2023/12/11 09:55:41;;;;;;;0.97;0.90;;;11.80;50.00;;;;;;10458496;28;20256;-79
2023/12/11 10:00:45;;;;;;;0.87;0.60;;;11.90;49.20;;;;;;10449870;28;20316;-77
2023/12/11 10:05:50;;;;;;;0.70;0.70;;;12.10;49.60;;;;;;10450106;28;20750;-77
2023/12/11 10:11:09;;;;;;;0.70;0.70;;;12.20;50.20;;;;;;10453535;28;20287;-79
2023/12/11 10:16:28;;;;;;;1.00;1.00;;;12.40;51.20;;;;;;10445770;28;20272;-78
2023/12/11 10:21:39;;;;;;;0.87;0.80;;;12.50;50.80;;;;;;10447809;28;21587;-81
2023/12/11 10:26:46;;;;;;;1.93;1.70;;;12.60;50.40;;;;;;10449973;28;20236;-79
2023/12/11 10:31:50;;;;;;;8.27;6.00;;;12.70;50.10;;;;;;10451409;28;20222;-80
2023/12/11 10:36:55;;;;;;;5.97;4.70;;;12.70;49.10;;;;;;10437484;28;20268;-79
2023/12/11 10:42:09;;;;;;;1.97;1.87;;;12.80;49.00;;;;;;10434356;28;20225;-81
2023/12/11 10:47:12;;;;;;;1.60;1.50;;;12.90;48.60;;;;;;10438485;28;20704;-81
2023/12/11 10:52:18;;;;;;;3.30;3.00;;;13.00;48.50;;;;;;10438213;28;20229;-82
2023/12/11 10:57:24;;;;;;;2.60;2.40;;;13.00;48.50;;;;;;10447253;28;20611;-80
2023/12/11 11:02:28;;;;;;;1.50;1.40;;;13.10;48.50;;;;;;10429283;28;20703;-81
2023/12/11 11:07:36;;;;;;;1.50;1.40;;;13.20;48.30;;;;;;10442133;28;20245;-81
2023/12/11 11:12:44;;;;;;;1.30;1.20;;;13.20;48.30;;;;;;10444884;28;20221;-81
2023/12/11 11:18:06;;;;;;;1.10;1.00;;;13.20;48.30;;;;;;10444411;28;20228;-81
2023/12/11 11:23:31;;;;;;;1.10;1.00;;;13.30;48.30;;;;;;10444849;28;20325;-80
2023/12/11 11:28:38;;;;;;;1.30;1.20;;;13.40;48.20;;;;;;10449724;28;20239;-81
2023/12/11 11:33:46;;;;;;;1.40;1.30;;;13.40;47.90;;;;;;10447944;28;20961;-80
2023/12/11 11:38:56;;;;;;;0.90;0.90;;;13.40;47.90;;;;;;10442595;28;20296;-81
2023/12/11 11:44:07;;;;;;;0.93;0.90;;;13.40;47.90;;;;;;10441651;28;20328;-80
2023/12/11 11:49:11;;;;;;;1.80;1.70;;;13.50;48.00;;;;;;10454806;28;20348;-80
2023/12/11 11:54:17;;;;;;;1.20;1.10;;;13.50;48.10;;;;;;10459616;28;20296;-80
2023/12/11 11:59:20;;;;;;;0.83;0.80;;;13.60;48.00;;;;;;10436834;28;20259;-79
2023/12/11 12:04:28;;;;;;;1.37;1.20;;;13.70;47.90;;;;;;10458517;28;20253;-78
2023/12/11 12:09:34;;;;;;;1.23;0.90;;;13.70;47.80;;;;;;10460270;28;20780;-78
2023/12/11 12:14:38;;;;;;;1.20;1.10;;;13.80;47.70;;;;;;10445229;28;20228;-78
2023/12/11 12:19:41;;;;;;;2.00;1.90;;;13.80;47.70;;;;;;10445822;28;20260;-79
2023/12/11 12:24:48;;;;;;;1.30;1.10;;;13.80;47.60;;;;;;10447772;28;20320;-79
2023/12/11 12:29:54;;;;;;;2.20;1.53;;;13.80;47.60;;;;;;10436494;28;20224;-78
2023/12/11 12:34:57;;;;;;;2.87;2.67;;;13.90;47.60;;;;;;10426703;28;20299;-78
2023/12/11 12:40:05;;;;;;;1.20;1.20;;;14.00;47.50;;;;;;10443042;28;20264;-80
2023/12/11 12:45:10;;;;;;;1.20;1.20;;;14.00;47.30;;;;;;10436910;28;20297;-82
2023/12/11 12:50:24;;;;;;;0.80;0.80;;;14.00;46.90;;;;;;10429625;28;20282;-82
2023/12/11 12:55:30;;;;;;;1.10;1.00;;;14.10;46.80;;;;;;10437061;28;20260;-81
2023/12/11 13:00:35;;;;;;;0.87;0.87;;;14.10;46.60;;;;;;10428552;28;20316;-81
2023/12/11 13:05:42;;;;;;;1.43;1.10;;;14.10;46.70;;;;;;10436709;28;20232;-81
2023/12/11 13:10:57;;;;;;;2.00;1.57;;;14.20;46.50;;;;;;10435070;28;20291;-81
2023/12/11 13:16:00;;;;;;;1.50;1.40;;;14.20;46.20;;;;;;10426169;28;20299;-80
2023/12/11 13:21:04;;;;;;;2.03;1.83;;;14.20;46.40;;;;;;10410675;28;20222;-82
2023/12/11 13:26:09;;;;;;;1.13;1.10;;;14.20;46.10;;;;;;10441145;28;20229;-79
2023/12/11 13:31:12;;;;;;;0.97;0.97;;;14.20;45.90;;;;;;10449137;28;20648;-79
2023/12/11 13:36:15;;;;;;;1.40;1.30;;;14.20;45.90;;;;;;10451569;28;20240;-79
2023/12/11 13:41:20;;;;;;;1.40;1.30;;;14.20;45.80;;;;;;10448878;28;20243;-77
2023/12/11 13:46:23;;;;;;;0.87;0.87;;;14.10;45.50;;;;;;10448142;28;20244;-79
2023/12/11 13:51:27;;;;;;;0.80;0.80;;;14.10;45.60;;;;;;10446721;28;20228;-79
2023/12/11 13:56:33;;;;;;;1.20;1.00;;;14.10;45.50;;;;;;10440842;28;20316;-77
2023/12/11 14:01:36;;;;;;;1.33;1.00;;;14.10;45.20;;;;;;10439924;28;20259;-77
2023/12/11 14:06:42;;;;;;;1.20;1.10;;;14.10;46.20;;;;;;10442773;28;20240;-77
2023/12/11 14:11:47;;;;;;;0.97;0.90;;;14.10;45.20;;;;;;10447970;28;20229;-79
2023/12/11 14:16:51;;;;;;;1.00;1.00;;;14.00;45.30;;;;;;10444386;28;20229;-78
2023/12/11 14:21:55;;;;;;;0.80;0.80;;;13.90;45.30;;;;;;10455092;28;20794;-79
2023/12/11 14:26:59;;;;;;;1.07;0.97;;;13.90;45.40;;;;;;10446474;28;20236;-78
2023/12/11 14:32:03;;;;;;;0.70;0.70;;;13.80;45.30;;;;;;10437669;28;20241;-79
2023/12/11 14:37:09;;;;;;;0.70;0.70;;;13.70;45.40;;;;;;10438933;28;20910;-78
2023/12/11 14:42:13;;;;;;;1.07;0.73;;;13.70;45.30;;;;;;10436394;28;20237;-80
2023/12/11 14:47:17;;;;;;;0.80;0.80;;;13.70;45.10;;;;;;10447173;28;20251;-81
2023/12/11 14:52:20;;;;;;;7.53;4.57;;;13.70;45.10;;;;;;10438602;28;20327;-76
2023/12/11 14:57:24;;;;;;;1.20;1.10;;;13.60;44.80;;;;;;10441330;28;20620;-78
2023/12/11 15:02:28;;;;;;;2.03;1.30;;;13.60;44.50;;;;;;10448775;28;20283;-79
2023/12/11 15:07:31;;;;;;;1.60;1.50;;;13.50;44.60;;;;;;10451020;28;20315;-79
2023/12/11 15:12:36;;;;;;;1.73;1.33;;;13.50;44.60;;;;;;10446990;28;20275;-78
2023/12/11 15:17:40;;;;;;;5.17;2.77;;;13.40;44.30;;;;;;10450341;28;20257;-78
2023/12/11 15:22:43;;;;;;;3.60;1.80;;;13.40;44.60;;;;;;10450970;28;20229;-79
2023/12/11 15:27:48;;;;;;;2.93;2.03;;;13.30;44.50;;;;;;10453234;28;20283;-79
2023/12/11 15:32:51;;;;;;;1.30;1.20;;;13.30;44.40;;;;;;10453617;28;20727;-79
2023/12/11 15:37:55;;;;;;;1.30;1.00;;;13.30;44.40;;;;;;10452232;28;20236;-80
2023/12/11 15:42:59;;;;;;;2.20;1.20;;;13.40;44.70;;;;;;10454197;28;20345;-80
2023/12/11 15:48:03;;;;;;;1.00;1.00;;;13.40;44.40;;;;;;10454204;28;20268;-79
2023/12/11 15:53:07;;;;;;;0.80;0.80;;;13.30;44.40;;;;;;10452654;28;20634;-79
2023/12/11 15:58:12;;;;;;;1.10;1.00;;;13.30;44.40;;;;;;10452252;28;20229;-79
2023/12/11 16:03:15;;;;;;;1.13;1.00;;;13.30;44.30;;;;;;10452077;28;20233;-78
2023/12/11 16:08:18;;;;;;;1.50;1.00;;;13.20;44.40;;;;;;10453806;28;20239;-78
2023/12/11 16:13:23;;;;;;;1.33;0.80;;;13.10;44.40;;;;;;10455978;28;20243;-77
2023/12/11 16:18:26;;;;;;;0.93;0.80;;;13.10;44.20;;;;;;10457469;28;20239;-79
2023/12/11 16:23:29;;;;;;;1.70;1.00;;;13.10;44.40;;;;;;10453700;28;20237;-79
2023/12/11 16:28:34;;;;;;;1.77;1.07;;;13.10;44.30;;;;;;10433778;28;20243;-76
2023/12/11 16:33:37;;;;;;;0.87;0.80;;;13.10;44.00;;;;;;10448286;28;20237;-77
2023/12/11 16:38:42;;;;;;;0.80;0.80;;;13.10;44.20;;;;;;10457848;28;20233;-80
2023/12/11 16:43:48;;;;;;;0.80;0.80;;;13.10;44.40;;;;;;10451729;28;20870;-78
2023/12/11 16:48:51;;;;;;;1.13;1.03;;;13.20;44.10;;;;;;10444478;28;20280;-79
2023/12/11 16:53:55;;;;;;;0.90;0.90;;;13.20;44.30;;;;;;10446852;28;20308;-79
2023/12/11 16:58:59;;;;;;;3.10;1.13;;;13.20;44.20;;;;;;10440860;28;20328;-81
2023/12/11 17:04:03;;;;;;;1.97;1.23;;;13.20;43.90;;;;;;10443136;28;20263;-81
2023/12/11 17:09:06;;;;;;;1.70;1.30;;;13.20;44.00;;;;;;10448109;28;20255;-81
2023/12/11 17:14:10;;;;;;;2.00;1.60;;;13.20;44.00;;;;;;10441858;28;20332;-81
2023/12/11 17:19:14;;;;;;;1.97;1.63;;;13.20;43.70;;;;;;10443964;28;20583;-81
2023/12/11 17:24:17;;;;;;;2.10;1.70;;;13.20;44.00;;;;;;10439174;28;20321;-81
2023/12/11 17:29:22;;;;;;;3.03;2.07;;;13.20;44.00;;;;;;10442740;28;20320;-81
2023/12/11 17:34:25;;;;;;;1.40;1.30;;;13.20;44.10;;;;;;10439393;28;20235;-81
2023/12/11 17:39:29;;;;;;;2.13;1.93;;;13.20;44.20;;;;;;10439802;28;20230;-80
2023/12/11 17:44:33;;;;;;;3.00;2.70;;;13.10;44.10;;;;;;10441814;28;20236;-81
2023/12/11 17:49:37;;;;;;;3.50;3.20;;;13.10;44.20;;;;;;10439146;28;20260;-81
2023/12/11 17:54:40;;;;;;;5.80;4.87;;;13.00;44.40;;;;;;10438694;28;20232;-81
2023/12/11 17:59:45;;;;;;;4.73;4.20;;;12.90;44.30;;;;;;10436025;28;20323;-81
2023/12/11 18:04:48;;;;;;;5.83;4.90;;;12.80;44.50;;;;;;10439814;28;20324;-80
2023/12/11 18:09:51;;;;;;;8.43;6.07;;;12.70;44.50;;;;;;10444774;28;20233;-81
2023/12/11 18:14:56;;;;;;;4.47;3.73;;;12.70;44.50;;;;;;10441194;28;20323;-80
2023/12/11 18:19:59;;;;;;;6.47;5.20;;;12.60;44.50;;;;;;10431315;28;20243;-79
2023/12/11 18:25:02;;;;;;;4.43;3.90;;;12.60;44.50;;;;;;10441733;28;20239;-78
2023/12/11 18:30:08;;;;;;;4.30;3.90;;;12.50;44.60;;;;;;10425060;28;20260;-78
2023/12/11 18:35:11;;;;;;;5.50;4.20;;;12.50;44.50;;;;;;10426203;28;20233;-79
2023/12/11 18:40:15;;;;;;;3.80;3.17;;;12.40;44.50;;;;;;10423569;28;20304;-79
2023/12/11 18:45:22;;;;;;;2.77;2.57;;;12.40;44.60;;;;;;10428088;28;20239;-79
2023/12/11 18:50:25;;;;;;;3.67;2.73;;;12.30;44.60;;;;;;10425666;28;21007;-79
2023/12/11 18:55:31;;;;;;;2.83;1.90;;;12.30;44.70;;;;;;10427557;28;20339;-79
2023/12/11 19:00:35;;;;;;;3.13;1.80;;;12.20;44.70;;;;;;10436470;28;20235;-78
2023/12/11 19:05:39;;;;;;;2.00;1.80;;;12.20;44.70;;;;;;10430518;28;20241;-79
2023/12/11 19:10:43;;;;;;;2.80;1.60;;;12.20;44.80;;;;;;10429670;28;20657;-79
2023/12/11 19:15:47;;;;;;;5.20;2.00;;;12.20;44.60;;;;;;10431258;28;20320;-79
2023/12/11 19:20:50;;;;;;;3.80;1.70;;;12.30;44.40;;;;;;10434133;28;20632;-78
2023/12/11 19:25:54;;;;;;;3.90;1.90;;;12.30;44.10;;;;;;10426811;28;20757;-78
2023/12/11 19:30:59;;;;;;;5.27;2.37;;;12.30;44.10;;;;;;10428612;28;20256;-78
2023/12/11 19:36:03;;;;;;;4.50;2.60;;;12.40;44.00;;;;;;10427596;28;20236;-78
2023/12/11 19:41:08;;;;;;;5.47;2.60;;;12.40;44.10;;;;;;10443950;28;20239;-79
2023/12/11 19:46:12;;;;;;;1.97;1.50;;;12.40;44.10;;;;;;10452347;28;20278;-80
2023/12/11 19:51:16;;;;;;;4.80;2.00;;;12.40;43.90;;;;;;10450548;28;20251;-78
2023/12/11 19:56:23;;;;;;;3.23;1.57;;;12.40;43.70;;;;;;10451529;28;20229;-79
2023/12/11 20:01:28;;;;;;;5.90;1.70;;;12.40;43.40;;;;;;10455795;28;20232;-78
2023/12/11 20:06:31;;;;;;;4.43;1.70;;;12.40;43.10;;;;;;10454611;28;20233;-79
2023/12/11 20:11:35;;;;;;;3.27;1.80;;;12.50;43.10;;;;;;10454657;28;20245;-79
2023/12/11 20:16:40;;;;;;;5.77;1.80;;;12.50;42.70;;;;;;10441154;28;20225;-79
2023/12/11 20:21:44;;;;;;;5.13;1.73;;;12.60;42.20;;;;;;10443730;28;20242;-78
2023/12/11 20:26:47;;;;;;;6.27;1.97;;;12.60;42.50;;;;;;10443523;28;20233;-78
2023/12/11 20:31:53;;;;;;;2.97;1.50;;;12.60;42.20;;;;;;10447669;28;20231;-78
2023/12/11 20:36:57;;;;;;;6.17;2.00;;;12.60;42.20;;;;;;10444926;28;20241;-76
2023/12/11 20:42:00;;;;;;;4.93;2.20;;;12.60;42.40;;;;;;10433089;28;20233;-79
2023/12/11 20:47:05;;;;;;;4.43;1.50;;;12.50;42.30;;;;;;10427972;28;20275;-79
2023/12/11 20:52:09;;;;;;;4.00;1.50;;;12.50;42.10;;;;;;10438982;28;20789;-79
2023/12/11 20:57:12;;;;;;;3.43;1.53;;;12.50;42.50;;;;;;10423373;28;20233;-80
2023/12/11 21:02:16;;;;;;;6.73;2.00;;;12.50;42.60;;;;;;10427511;28;20225;-79
2023/12/11 21:07:20;;;;;;;4.17;1.60;;;12.50;42.30;;;;;;10429703;28;20233;-79
2023/12/11 21:12:24;;;;;;;6.53;1.67;;;12.50;42.60;;;;;;10424391;28;20260;-79
2023/12/11 21:17:28;;;;;;;4.17;1.77;;;12.50;42.20;;;;;;10427392;28;20794;-79
2023/12/11 21:22:32;;;;;;;5.03;2.20;;;12.60;42.20;;;;;;10432317;28;20241;-80
2023/12/11 21:27:35;;;;;;;4.23;2.00;;;12.50;42.10;;;;;;10424841;28;20233;-79
2023/12/11 21:32:42;;;;;;;5.20;2.47;;;12.50;42.20;;;;;;10427090;28;20231;-78
2023/12/11 21:37:46;;;;;;;4.77;2.03;;;12.40;42.00;;;;;;10428876;28;20232;-79
2023/12/11 21:42:49;;;;;;;5.43;2.33;;;12.40;42.30;;;;;;10429077;28;20232;-79
2023/12/11 21:47:54;;;;;;;2.83;2.00;;;12.40;42.50;;;;;;10432538;28;20235;-79
2023/12/11 21:52:57;;;;;;;4.07;1.80;;;12.30;42.40;;;;;;10426870;28;20311;-79
2023/12/11 21:58:00;;;;;;;2.47;1.77;;;12.20;42.60;;;;;;10429185;28;20247;-79
2023/12/11 22:03:05;;;;;;;3.07;1.57;;;12.10;42.80;;;;;;10432942;28;20797;-79
2023/12/11 22:08:08;;;;;;;2.83;1.70;;;11.90;42.90;;;;;;10431840;28;20310;-79
2023/12/11 22:13:12;;;;;;;2.47;1.73;;;11.80;43.20;;;;;;10435868;28;20236;-79
2023/12/11 22:18:17;;;;;;;2.10;1.90;;;11.60;43.30;;;;;;10426089;28;20665;-79
2023/12/11 22:23:20;;;;;;;2.70;2.10;;;11.60;43.60;;;;;;10431492;28;20259;-79
2023/12/11 22:28:23;;;;;;;3.60;2.30;;;11.60;43.60;;;;;;10428460;28;20263;-79
2023/12/11 22:33:28;;;;;;;4.13;2.33;;;11.60;43.70;;;;;;10423156;28;20731;-79
2023/12/11 22:38:31;;;;;;;3.83;1.80;;;11.60;43.60;;;;;;10432049;28;20287;-79
2023/12/11 22:43:36;;;;;;;4.37;2.13;;;11.60;43.60;;;;;;10427784;28;20245;-79
2023/12/11 22:48:41;;;;;;;3.33;1.40;;;11.60;43.50;;;;;;10432812;28;20225;-79
2023/12/11 22:53:45;;;;;;;3.63;1.40;;;11.60;43.60;;;;;;10427903;28;20233;-79
2023/12/11 22:58:48;;;;;;;2.90;1.40;;;11.60;43.60;;;;;;10428260;28;20231;-79
2023/12/11 23:03:52;;;;;;;4.83;1.70;;;11.50;43.50;;;;;;10425126;28;20287;-79
2023/12/11 23:08:56;;;;;;;3.73;1.50;;;11.60;43.40;;;;;;10427445;28;20919;-79
2023/12/11 23:14:00;;;;;;;4.83;2.13;;;11.50;43.10;;;;;;10428513;28;20233;-79
2023/12/11 23:19:04;;;;;;;2.97;2.13;;;11.40;43.20;;;;;;10438377;28;20260;-78
2023/12/11 23:24:08;;;;;;;3.13;1.90;;;11.30;43.20;;;;;;10439522;28;20931;-79
2023/12/11 23:29:11;;;;;;;2.90;1.80;;;11.30;43.20;;;;;;10440017;28;20221;-79
2023/12/11 23:34:16;;;;;;;3.40;2.00;;;11.20;43.00;;;;;;10443552;28;20276;-79
2023/12/11 23:39:19;;;;;;;3.33;1.93;;;11.20;43.00;;;;;;10434438;28;20283;-79
2023/12/11 23:44:22;;;;;;;4.17;1.60;;;11.10;43.20;;;;;;10435095;28;20729;-79
2023/12/11 23:49:27;;;;;;;3.90;1.83;;;11.00;43.20;;;;;;10434591;28;20232;-79
2023/12/11 23:54:30;;;;;;;2.60;1.67;;;10.90;43.00;;;;;;10430366;28;20237;-79
2023/12/11 23:59:34;;;;;;;2.47;1.80;;;10.80;42.90;;;;;;10437237;28;20331;-79
